WMT177 LRSV-LIPH
Flight info
| Callsign | WMT177 |
|---|---|
| Flight time | 1h 48m |
| Altitude | 38000 |
| Route | HUMOR2B/34 HUMOR DCT ROMAG DCT IZDUW DCT KOPRY DCT MAGAM DCT BARPI/N0444F290 DCT MONFA DCT ROSKA DCT TULIK Z71 BASOG M167 CHI N503 INBUT |
| Aircraft | A21N/M-SDE1E2E3FGIJ1J4RWXY/LB1 |
Departure
| Time | 2026-04-28 10:26 |
|---|---|
| Airport | Suceava Ștefan cel Mare International Airport (LRSV) |
Arrival
| Time | 2026-04-28 12:14 |
|---|---|
| Airport | Treviso Airport (LIPH) |
| Time | Latitude | Longitude | Altitude | Speed | Heading |
|---|---|---|---|---|---|
| 2026-04-28 09:51 | 47.68561 | 26.35148 | 1364 ft | 0 kts | 280° |
| 2026-04-28 10:20 | 47.68561 | 26.35147 | 1364 ft | 1 kts | 280° |
| 2026-04-28 10:21 | 47.68564 | 26.35142 | 1364 ft | 1 kts | 306° |
| 2026-04-28 10:21 | 47.68574 | 26.35145 | 1364 ft | 3 kts | 32° |
| 2026-04-28 10:21 | 47.68590 | 26.35175 | 1364 ft | 5 kts | 51° |
| 2026-04-28 10:21 | 47.68624 | 26.35203 | 1364 ft | 7 kts | 1° |
| 2026-04-28 10:22 | 47.68679 | 26.35188 | 1364 ft | 9 kts | 346° |
| 2026-04-28 10:22 | 47.68737 | 26.35219 | 1363 ft | 11 kts | 70° |
| 2026-04-28 10:22 | 47.68756 | 26.35334 | 1363 ft | 11 kts | 86° |
| 2026-04-28 10:22 | 47.68704 | 26.35420 | 1366 ft | 13 kts | 162° |
| 2026-04-28 10:23 | 47.68607 | 26.35463 | 1366 ft | 16 kts | 163° |
| 2026-04-28 10:23 | 47.68497 | 26.35512 | 1367 ft | 18 kts | 163° |
| 2026-04-28 10:23 | 47.68373 | 26.35566 | 1366 ft | 19 kts | 164° |
| 2026-04-28 10:23 | 47.68242 | 26.35624 | 1363 ft | 20 kts | 163° |
| 2026-04-28 10:24 | 47.68104 | 26.35686 | 1363 ft | 22 kts | 163° |
| 2026-04-28 10:24 | 47.68004 | 26.35731 | 1362 ft | 23 kts | 163° |
| 2026-04-28 10:24 | 47.67854 | 26.35799 | 1363 ft | 14 kts | 163° |
| 2026-04-28 10:24 | 47.67755 | 26.35844 | 1363 ft | 16 kts | 161° |
| 2026-04-28 10:25 | 47.67667 | 26.35921 | 1364 ft | 12 kts | 136° |
| 2026-04-28 10:25 | 47.67634 | 26.35954 | 1364 ft | 6 kts | 173° |
| 2026-04-28 10:25 | 47.67609 | 26.35921 | 1364 ft | 4 kts | 279° |
| 2026-04-28 10:25 | 47.67637 | 26.35895 | 1364 ft | 6 kts | 344° |
| 2026-04-28 10:26 | 47.67813 | 26.35819 | 1362 ft | 63 kts | 343° |
| 2026-04-28 10:26 | 47.68488 | 26.35517 | 1368 ft | 132 kts | 343° |
| 2026-04-28 10:26 | 47.69451 | 26.35094 | 1722 ft | 150 kts | 342° |
| 2026-04-28 10:26 | 47.70475 | 26.34650 | 2480 ft | 156 kts | 342° |
| 2026-04-28 10:27 | 47.71430 | 26.33881 | 3255 ft | 165 kts | 314° |
| 2026-04-28 10:27 | 47.71830 | 26.32197 | 3737 ft | 193 kts | 274° |
| 2026-04-28 10:27 | 47.71442 | 26.30139 | 4207 ft | 227 kts | 243° |
| 2026-04-28 10:27 | 47.70517 | 26.28112 | 4725 ft | 252 kts | 239° |
| 2026-04-28 10:28 | 47.69501 | 26.25899 | 5496 ft | 263 kts | 238° |
| 2026-04-28 10:28 | 47.68459 | 26.23652 | 6596 ft | 262 kts | 238° |
| 2026-04-28 10:28 | 47.67428 | 26.21441 | 7682 ft | 261 kts | 238° |
| 2026-04-28 10:29 | 47.65325 | 26.16954 | 9624 ft | 268 kts | 239° |
| 2026-04-28 10:29 | 47.64247 | 26.14660 | 10435 ft | 277 kts | 239° |
| 2026-04-28 10:29 | 47.63114 | 26.12199 | 10791 ft | 299 kts | 242° |
| 2026-04-28 10:29 | 47.61975 | 26.09474 | 11100 ft | 322 kts | 242° |
| 2026-04-28 10:30 | 47.60738 | 26.06623 | 11616 ft | 335 kts | 240° |
| 2026-04-28 10:30 | 47.59423 | 26.03721 | 12369 ft | 342 kts | 239° |
| 2026-04-28 10:30 | 47.58083 | 26.00837 | 13165 ft | 346 kts | 238° |
| 2026-04-28 10:30 | 47.56678 | 25.97849 | 14000 ft | 351 kts | 238° |
| 2026-04-28 10:31 | 47.55288 | 25.94913 | 14742 ft | 355 kts | 238° |
| 2026-04-28 10:31 | 47.53860 | 25.91904 | 15525 ft | 358 kts | 239° |
| 2026-04-28 10:31 | 47.52573 | 25.88766 | 16281 ft | 356 kts | 248° |
| 2026-04-28 10:31 | 47.51791 | 25.85302 | 17028 ft | 354 kts | 262° |
| 2026-04-28 10:32 | 47.51665 | 25.81669 | 17805 ft | 354 kts | 273° |
| 2026-04-28 10:32 | 47.51732 | 25.78012 | 18560 ft | 357 kts | 273° |
| 2026-04-28 10:32 | 47.51763 | 25.74326 | 19217 ft | 360 kts | 272° |
| 2026-04-28 10:32 | 47.51754 | 25.70609 | 19853 ft | 363 kts | 271° |
| 2026-04-28 10:33 | 47.51722 | 25.66854 | 20485 ft | 366 kts | 271° |
| 2026-04-28 10:33 | 47.51678 | 25.63068 | 21118 ft | 370 kts | 271° |
| 2026-04-28 10:33 | 47.51628 | 25.59256 | 21751 ft | 372 kts | 271° |
| 2026-04-28 10:33 | 47.51574 | 25.55410 | 22357 ft | 376 kts | 271° |
| 2026-04-28 10:34 | 47.51518 | 25.51530 | 22940 ft | 379 kts | 271° |
| 2026-04-28 10:34 | 47.51458 | 25.47619 | 23500 ft | 382 kts | 271° |
| 2026-04-28 10:34 | 47.51398 | 25.43678 | 24044 ft | 384 kts | 271° |
| 2026-04-28 10:34 | 47.51336 | 25.39718 | 24559 ft | 385 kts | 271° |
| 2026-04-28 10:35 | 47.51272 | 25.35752 | 25077 ft | 386 kts | 271° |
| 2026-04-28 10:35 | 47.51208 | 25.31830 | 25583 ft | 388 kts | 271° |
| 2026-04-28 10:35 | 47.51141 | 25.27832 | 26088 ft | 389 kts | 271° |
| 2026-04-28 10:35 | 47.51028 | 25.23818 | 26591 ft | 393 kts | 268° |
| 2026-04-28 10:36 | 47.50714 | 25.19797 | 27091 ft | 395 kts | 267° |
| 2026-04-28 10:36 | 47.50459 | 25.15745 | 27555 ft | 395 kts | 269° |
| 2026-04-28 10:36 | 47.50296 | 25.11690 | 28043 ft | 395 kts | 271° |
| 2026-04-28 10:36 | 47.50184 | 25.07625 | 28514 ft | 397 kts | 271° |
| 2026-04-28 10:37 | 47.50095 | 25.03535 | 28957 ft | 398 kts | 272° |
| 2026-04-28 10:37 | 47.50012 | 24.99435 | 29517 ft | 397 kts | 272° |
| 2026-04-28 10:37 | 47.49931 | 24.95380 | 30144 ft | 393 kts | 272° |
| 2026-04-28 10:37 | 47.49851 | 24.91351 | 30623 ft | 390 kts | 272° |
| 2026-04-28 10:38 | 47.49770 | 24.87342 | 30989 ft | 389 kts | 272° |
| 2026-04-28 10:38 | 47.49688 | 24.83342 | 31336 ft | 388 kts | 272° |
| 2026-04-28 10:38 | 47.49604 | 24.79363 | 31745 ft | 387 kts | 272° |
| 2026-04-28 10:38 | 47.49520 | 24.75437 | 32156 ft | 386 kts | 272° |
| 2026-04-28 10:39 | 47.49435 | 24.71468 | 32555 ft | 385 kts | 272° |
| 2026-04-28 10:39 | 47.49348 | 24.67508 | 32944 ft | 384 kts | 272° |
| 2026-04-28 10:39 | 47.49188 | 24.63578 | 33338 ft | 384 kts | 268° |
| 2026-04-28 10:39 | 47.48905 | 24.59646 | 33652 ft | 383 kts | 268° |
| 2026-04-28 10:40 | 47.48714 | 24.55735 | 34023 ft | 380 kts | 272° |
| 2026-04-28 10:40 | 47.48737 | 24.51840 | 34333 ft | 378 kts | 274° |
| 2026-04-28 10:40 | 47.48773 | 24.47953 | 34564 ft | 379 kts | 273° |
| 2026-04-28 10:40 | 47.48754 | 24.44042 | 34730 ft | 381 kts | 272° |
| 2026-04-28 10:41 | 47.48692 | 24.40114 | 34889 ft | 382 kts | 271° |
| 2026-04-28 10:41 | 47.48607 | 24.36173 | 35103 ft | 384 kts | 271° |
| 2026-04-28 10:41 | 47.48512 | 24.32223 | 35305 ft | 385 kts | 271° |
| 2026-04-28 10:41 | 47.48415 | 24.28322 | 35514 ft | 385 kts | 271° |
| 2026-04-28 10:42 | 47.48314 | 24.24366 | 35696 ft | 386 kts | 271° |
| 2026-04-28 10:42 | 47.48210 | 24.20386 | 35870 ft | 388 kts | 271° |
| 2026-04-28 10:42 | 47.48135 | 24.16404 | 36059 ft | 388 kts | 271° |
| 2026-04-28 10:42 | 47.48073 | 24.12395 | 36178 ft | 390 kts | 271° |
| 2026-04-28 10:43 | 47.47990 | 24.08380 | 36186 ft | 390 kts | 271° |
| 2026-04-28 10:43 | 47.47786 | 24.00358 | 36165 ft | 390 kts | 270° |
| 2026-04-28 10:44 | 47.47564 | 23.92389 | 36162 ft | 390 kts | 270° |
| 2026-04-28 10:44 | 47.47334 | 23.84364 | 36159 ft | 390 kts | 270° |
| 2026-04-28 10:45 | 47.47095 | 23.76349 | 36164 ft | 390 kts | 270° |
| 2026-04-28 10:45 | 47.46853 | 23.68342 | 36130 ft | 390 kts | 270° |
| 2026-04-28 10:46 | 47.46604 | 23.60311 | 36160 ft | 391 kts | 270° |
| 2026-04-28 10:46 | 47.46348 | 23.52268 | 36168 ft | 392 kts | 270° |
| 2026-04-28 10:47 | 47.46088 | 23.44220 | 36170 ft | 392 kts | 270° |
| 2026-04-28 10:47 | 47.45825 | 23.36219 | 36168 ft | 392 kts | 270° |
| 2026-04-28 10:48 | 47.45552 | 23.28168 | 36167 ft | 392 kts | 270° |
| 2026-04-28 10:48 | 47.45275 | 23.20107 | 36175 ft | 392 kts | 270° |
| 2026-04-28 10:49 | 47.44989 | 23.12064 | 36177 ft | 392 kts | 270° |
| 2026-04-28 10:49 | 47.44702 | 23.04020 | 36177 ft | 392 kts | 270° |
| 2026-04-28 10:50 | 47.44407 | 22.95967 | 36181 ft | 393 kts | 270° |
| 2026-04-28 10:50 | 47.44107 | 22.87908 | 36187 ft | 393 kts | 270° |
| 2026-04-28 10:51 | 47.43802 | 22.79850 | 36187 ft | 393 kts | 270° |
| 2026-04-28 10:51 | 47.43490 | 22.71789 | 36174 ft | 394 kts | 270° |
| 2026-04-28 10:52 | 47.43171 | 22.63690 | 36180 ft | 395 kts | 270° |
| 2026-04-28 10:52 | 47.42846 | 22.55602 | 36176 ft | 395 kts | 270° |
| 2026-04-28 10:53 | 47.42517 | 22.47559 | 36182 ft | 395 kts | 270° |
| 2026-04-28 10:53 | 47.41922 | 22.39481 | 36183 ft | 399 kts | 262° |
| 2026-04-28 10:54 | 47.40677 | 22.31483 | 36183 ft | 400 kts | 261° |
| 2026-04-28 10:54 | 47.39403 | 22.23491 | 36182 ft | 400 kts | 261° |
| 2026-04-28 10:55 | 47.38134 | 22.15498 | 36183 ft | 400 kts | 261° |
| 2026-04-28 10:55 | 47.36853 | 22.07506 | 36188 ft | 400 kts | 261° |
| 2026-04-28 10:56 | 47.35568 | 21.99526 | 36178 ft | 400 kts | 261° |
| 2026-04-28 10:56 | 47.34250 | 21.91547 | 36183 ft | 401 kts | 259° |
| 2026-04-28 10:57 | 47.32711 | 21.83683 | 36191 ft | 402 kts | 258° |
| 2026-04-28 10:57 | 47.31143 | 21.75779 | 36202 ft | 402 kts | 258° |
| 2026-04-28 10:58 | 47.29572 | 21.67879 | 36200 ft | 402 kts | 258° |
| 2026-04-28 10:58 | 47.27993 | 21.59979 | 36192 ft | 402 kts | 258° |
| 2026-04-28 10:59 | 47.26412 | 21.52093 | 36178 ft | 401 kts | 258° |
| 2026-04-28 10:59 | 47.24829 | 21.44211 | 36176 ft | 401 kts | 258° |
| 2026-04-28 11:00 | 47.23240 | 21.36345 | 36183 ft | 401 kts | 258° |
| 2026-04-28 11:00 | 47.21646 | 21.28489 | 36188 ft | 401 kts | 258° |
| 2026-04-28 11:01 | 47.20057 | 21.20680 | 36187 ft | 401 kts | 258° |
| 2026-04-28 11:01 | 47.18451 | 21.12823 | 36184 ft | 401 kts | 258° |
| 2026-04-28 11:02 | 47.16839 | 21.04974 | 36173 ft | 400 kts | 258° |
| 2026-04-28 11:02 | 47.15228 | 20.97155 | 36184 ft | 400 kts | 258° |
| 2026-04-28 11:03 | 47.13613 | 20.89346 | 36164 ft | 399 kts | 258° |
| 2026-04-28 11:03 | 47.11997 | 20.81565 | 36179 ft | 398 kts | 258° |
| 2026-04-28 11:04 | 47.10374 | 20.73779 | 36183 ft | 398 kts | 258° |
| 2026-04-28 11:04 | 47.08748 | 20.66000 | 36183 ft | 398 kts | 258° |
| 2026-04-28 11:05 | 47.07125 | 20.58279 | 36186 ft | 398 kts | 258° |
| 2026-04-28 11:05 | 47.05484 | 20.50495 | 36187 ft | 398 kts | 258° |
| 2026-04-28 11:06 | 47.03843 | 20.42733 | 36188 ft | 398 kts | 258° |
| 2026-04-28 11:06 | 47.02194 | 20.34975 | 36184 ft | 398 kts | 258° |
| 2026-04-28 11:07 | 47.00540 | 20.27228 | 36189 ft | 398 kts | 258° |
| 2026-04-28 11:07 | 46.98881 | 20.19479 | 36189 ft | 399 kts | 258° |
| 2026-04-28 11:08 | 46.97218 | 20.11738 | 36190 ft | 399 kts | 258° |
| 2026-04-28 11:08 | 46.95548 | 20.03998 | 36193 ft | 399 kts | 258° |
| 2026-04-28 11:09 | 46.93876 | 19.96276 | 36198 ft | 397 kts | 258° |
| 2026-04-28 11:09 | 46.92201 | 19.88578 | 36200 ft | 397 kts | 258° |
| 2026-04-28 11:10 | 46.90533 | 19.80938 | 36185 ft | 397 kts | 258° |
| 2026-04-28 11:10 | 46.88851 | 19.73254 | 36196 ft | 396 kts | 258° |
| 2026-04-28 11:11 | 46.87170 | 19.65585 | 36186 ft | 396 kts | 258° |
| 2026-04-28 11:11 | 46.85482 | 19.57916 | 36182 ft | 396 kts | 258° |
| 2026-04-28 11:12 | 46.83787 | 19.50250 | 36172 ft | 396 kts | 258° |
| 2026-04-28 11:12 | 46.82088 | 19.42602 | 36181 ft | 396 kts | 258° |
| 2026-04-28 11:13 | 46.80670 | 19.36255 | 36188 ft | 396 kts | 258° |
| 2026-04-28 11:13 | 46.78962 | 19.28608 | 36156 ft | 396 kts | 258° |
| 2026-04-28 11:14 | 46.77249 | 19.20974 | 36181 ft | 396 kts | 258° |
| 2026-04-28 11:14 | 46.75528 | 19.13334 | 36181 ft | 396 kts | 258° |
| 2026-04-28 11:15 | 46.73799 | 19.05701 | 36182 ft | 396 kts | 257° |
| 2026-04-28 11:15 | 46.72062 | 18.98070 | 36179 ft | 396 kts | 257° |
| 2026-04-28 11:16 | 46.70343 | 18.90516 | 36183 ft | 395 kts | 257° |
| 2026-04-28 11:16 | 46.68608 | 18.82913 | 36183 ft | 396 kts | 257° |
| 2026-04-28 11:17 | 46.66863 | 18.75299 | 36184 ft | 396 kts | 257° |
| 2026-04-28 11:17 | 46.65114 | 18.67700 | 36176 ft | 396 kts | 257° |
| 2026-04-28 11:18 | 46.63356 | 18.60087 | 36181 ft | 396 kts | 257° |
| 2026-04-28 11:18 | 46.61598 | 18.52488 | 36183 ft | 396 kts | 257° |
| 2026-04-28 11:19 | 46.59840 | 18.44939 | 36182 ft | 396 kts | 257° |
| 2026-04-28 11:19 | 46.58071 | 18.37346 | 36182 ft | 396 kts | 257° |
| 2026-04-28 11:20 | 46.56296 | 18.29770 | 36180 ft | 396 kts | 257° |
| 2026-04-28 11:20 | 46.54517 | 18.22204 | 36179 ft | 396 kts | 257° |
| 2026-04-28 11:21 | 46.52734 | 18.14629 | 36175 ft | 396 kts | 256° |
| 2026-04-28 11:21 | 46.50942 | 18.07047 | 36181 ft | 397 kts | 256° |
| 2026-04-28 11:22 | 46.49144 | 17.99477 | 36178 ft | 397 kts | 256° |
| 2026-04-28 11:22 | 46.47341 | 17.91915 | 36179 ft | 396 kts | 256° |
| 2026-04-28 11:23 | 46.45537 | 17.84365 | 36181 ft | 396 kts | 256° |
| 2026-04-28 11:23 | 46.43736 | 17.76854 | 36185 ft | 396 kts | 256° |
| 2026-04-28 11:24 | 46.41920 | 17.69310 | 36187 ft | 396 kts | 256° |
| 2026-04-28 11:24 | 46.40097 | 17.61762 | 36180 ft | 397 kts | 256° |
| 2026-04-28 11:25 | 46.38271 | 17.54226 | 36189 ft | 397 kts | 256° |
| 2026-04-28 11:25 | 46.36438 | 17.46686 | 36178 ft | 397 kts | 256° |
| 2026-04-28 11:26 | 46.34603 | 17.39162 | 36181 ft | 396 kts | 256° |
| 2026-04-28 11:26 | 46.32761 | 17.31637 | 36180 ft | 396 kts | 255° |
| 2026-04-28 11:27 | 46.30914 | 17.24116 | 36177 ft | 396 kts | 255° |
| 2026-04-28 11:27 | 46.29061 | 17.16600 | 36153 ft | 397 kts | 255° |
| 2026-04-28 11:28 | 46.27202 | 17.09078 | 36170 ft | 397 kts | 255° |
| 2026-04-28 11:28 | 46.25345 | 17.01593 | 36172 ft | 398 kts | 255° |
| 2026-04-28 11:29 | 46.23556 | 16.94033 | 36167 ft | 397 kts | 257° |
| 2026-04-28 11:29 | 46.21978 | 16.86394 | 36170 ft | 397 kts | 258° |
| 2026-04-28 11:30 | 46.20396 | 16.78759 | 36171 ft | 397 kts | 258° |
| 2026-04-28 11:30 | 46.18012 | 16.67312 | 36170 ft | 397 kts | 257° |
| 2026-04-28 11:31 | 46.16418 | 16.59691 | 36147 ft | 397 kts | 257° |
| 2026-04-28 11:31 | 46.14823 | 16.52102 | 36155 ft | 398 kts | 257° |
| 2026-04-28 11:32 | 46.13213 | 16.44460 | 36166 ft | 398 kts | 257° |
| 2026-04-28 11:32 | 46.11589 | 16.36806 | 36163 ft | 399 kts | 257° |
| 2026-04-28 11:33 | 46.09966 | 16.29165 | 36164 ft | 399 kts | 257° |
| 2026-04-28 11:33 | 46.08336 | 16.21531 | 36164 ft | 399 kts | 257° |
| 2026-04-28 11:34 | 46.06703 | 16.13891 | 36161 ft | 399 kts | 257° |
| 2026-04-28 11:34 | 46.05066 | 16.06258 | 36158 ft | 399 kts | 257° |
| 2026-04-28 11:35 | 46.03420 | 15.98624 | 36142 ft | 400 kts | 256° |
| 2026-04-28 11:35 | 46.01759 | 15.90967 | 36151 ft | 401 kts | 256° |
| 2026-04-28 11:36 | 46.00111 | 15.83368 | 36151 ft | 401 kts | 256° |
| 2026-04-28 11:36 | 45.98445 | 15.75697 | 36145 ft | 401 kts | 256° |
| 2026-04-28 11:37 | 45.96868 | 15.68018 | 36142 ft | 400 kts | 259° |
| 2026-04-28 11:37 | 45.95569 | 15.60260 | 36141 ft | 399 kts | 260° |
| 2026-04-28 11:38 | 45.94269 | 15.52492 | 36142 ft | 399 kts | 259° |
| 2026-04-28 11:38 | 45.92961 | 15.44737 | 36142 ft | 400 kts | 259° |
| 2026-04-28 11:39 | 45.91639 | 15.36974 | 36130 ft | 400 kts | 259° |
| 2026-04-28 11:39 | 45.90314 | 15.29199 | 36138 ft | 401 kts | 259° |
| 2026-04-28 11:40 | 45.88974 | 15.21414 | 36137 ft | 402 kts | 259° |
| 2026-04-28 11:40 | 45.87646 | 15.13672 | 36137 ft | 402 kts | 259° |
| 2026-04-28 11:41 | 45.86304 | 15.05880 | 36133 ft | 402 kts | 259° |
| 2026-04-28 11:41 | 45.84955 | 14.98095 | 36130 ft | 402 kts | 259° |
| 2026-04-28 11:42 | 45.83599 | 14.90309 | 36127 ft | 402 kts | 259° |
| 2026-04-28 11:42 | 45.82240 | 14.82540 | 36120 ft | 402 kts | 259° |
| 2026-04-28 11:43 | 45.80875 | 14.74773 | 36123 ft | 402 kts | 259° |
| 2026-04-28 11:43 | 45.79506 | 14.67006 | 36112 ft | 402 kts | 259° |
| 2026-04-28 11:44 | 45.78125 | 14.59230 | 36113 ft | 402 kts | 258° |
| 2026-04-28 11:44 | 45.76743 | 14.51464 | 36113 ft | 402 kts | 258° |
| 2026-04-28 11:45 | 45.75363 | 14.43746 | 36117 ft | 402 kts | 258° |
| 2026-04-28 11:45 | 45.73969 | 14.35981 | 36105 ft | 402 kts | 258° |
| 2026-04-28 11:46 | 45.72574 | 14.28230 | 36102 ft | 402 kts | 258° |
| 2026-04-28 11:46 | 45.71168 | 14.20487 | 36089 ft | 402 kts | 258° |
| 2026-04-28 11:47 | 45.69754 | 14.12727 | 36091 ft | 403 kts | 258° |
| 2026-04-28 11:47 | 45.68341 | 14.04966 | 36079 ft | 404 kts | 258° |
| 2026-04-28 11:48 | 45.66923 | 13.97232 | 36075 ft | 404 kts | 258° |
| 2026-04-28 11:48 | 45.65493 | 13.89474 | 36073 ft | 403 kts | 258° |
| 2026-04-28 11:49 | 45.64066 | 13.81730 | 36063 ft | 402 kts | 258° |
| 2026-04-28 11:49 | 45.63350 | 13.77877 | 35829 ft | 399 kts | 258° |
| 2026-04-28 11:49 | 45.62637 | 13.74048 | 35529 ft | 400 kts | 258° |
| 2026-04-28 11:50 | 45.61921 | 13.70205 | 35264 ft | 400 kts | 258° |
| 2026-04-28 11:50 | 45.61202 | 13.66369 | 35012 ft | 400 kts | 258° |
| 2026-04-28 11:50 | 45.60490 | 13.62569 | 34767 ft | 400 kts | 258° |
| 2026-04-28 11:50 | 45.59771 | 13.58724 | 34522 ft | 400 kts | 258° |
| 2026-04-28 11:51 | 45.59044 | 13.54889 | 34283 ft | 401 kts | 256° |
| 2026-04-28 11:51 | 45.58067 | 13.51150 | 34037 ft | 405 kts | 248° |
| 2026-04-28 11:51 | 45.56724 | 13.47599 | 33745 ft | 407 kts | 244° |
| 2026-04-28 11:51 | 45.55290 | 13.44085 | 33471 ft | 410 kts | 243° |
| 2026-04-28 11:52 | 45.53844 | 13.40559 | 33199 ft | 411 kts | 243° |
| 2026-04-28 11:52 | 45.52406 | 13.37031 | 32939 ft | 412 kts | 244° |
| 2026-04-28 11:52 | 45.50981 | 13.33532 | 32671 ft | 413 kts | 244° |
| 2026-04-28 11:52 | 45.49542 | 13.29996 | 32410 ft | 413 kts | 243° |
| 2026-04-28 11:53 | 45.48097 | 13.26446 | 32149 ft | 413 kts | 243° |
| 2026-04-28 11:53 | 45.46637 | 13.22902 | 31890 ft | 414 kts | 243° |
| 2026-04-28 11:53 | 45.45174 | 13.19366 | 31549 ft | 414 kts | 243° |
| 2026-04-28 11:53 | 45.43718 | 13.15842 | 30921 ft | 410 kts | 243° |
| 2026-04-28 11:54 | 45.42275 | 13.12352 | 30285 ft | 409 kts | 243° |
| 2026-04-28 11:54 | 45.40836 | 13.08880 | 29495 ft | 407 kts | 243° |
| 2026-04-28 11:54 | 45.39402 | 13.05419 | 28778 ft | 403 kts | 243° |
| 2026-04-28 11:54 | 45.37976 | 13.01994 | 28117 ft | 400 kts | 243° |
| 2026-04-28 11:55 | 45.36567 | 12.98611 | 27485 ft | 396 kts | 243° |
| 2026-04-28 11:55 | 45.35171 | 12.95243 | 26842 ft | 393 kts | 243° |
| 2026-04-28 11:55 | 45.33789 | 12.91913 | 26201 ft | 390 kts | 242° |
| 2026-04-28 11:55 | 45.32430 | 12.88650 | 25579 ft | 387 kts | 242° |
| 2026-04-28 11:56 | 45.31065 | 12.85368 | 24947 ft | 385 kts | 242° |
| 2026-04-28 11:56 | 45.29705 | 12.82099 | 24313 ft | 383 kts | 242° |
| 2026-04-28 11:56 | 45.28318 | 12.78866 | 23687 ft | 382 kts | 239° |
| 2026-04-28 11:56 | 45.26785 | 12.75777 | 22968 ft | 381 kts | 237° |
| 2026-04-28 11:57 | 45.25235 | 12.72738 | 22285 ft | 378 kts | 236° |
| 2026-04-28 11:57 | 45.23696 | 12.69729 | 21636 ft | 376 kts | 236° |
| 2026-04-28 11:57 | 45.22168 | 12.66744 | 21021 ft | 373 kts | 236° |
| 2026-04-28 11:57 | 45.20651 | 12.63789 | 20442 ft | 369 kts | 236° |
| 2026-04-28 11:58 | 45.19147 | 12.60862 | 19881 ft | 365 kts | 236° |
| 2026-04-28 11:58 | 45.17661 | 12.57960 | 19364 ft | 362 kts | 236° |
| 2026-04-28 11:58 | 45.16184 | 12.55072 | 18868 ft | 360 kts | 236° |
| 2026-04-28 11:58 | 45.14717 | 12.52209 | 18375 ft | 358 kts | 236° |
| 2026-04-28 11:59 | 45.13305 | 12.49302 | 17817 ft | 357 kts | 242° |
| 2026-04-28 11:59 | 45.12266 | 12.46122 | 17292 ft | 355 kts | 249° |
| 2026-04-28 11:59 | 45.11342 | 12.42883 | 16777 ft | 354 kts | 249° |
| 2026-04-28 11:59 | 45.10422 | 12.39651 | 16272 ft | 354 kts | 249° |
| 2026-04-28 12:00 | 45.09510 | 12.36477 | 15796 ft | 352 kts | 249° |
| 2026-04-28 12:00 | 45.08655 | 12.33238 | 15343 ft | 351 kts | 255° |
| 2026-04-28 12:00 | 45.08453 | 12.29826 | 14861 ft | 349 kts | 276° |
| 2026-04-28 12:00 | 45.09136 | 12.26544 | 14374 ft | 351 kts | 296° |
| 2026-04-28 12:01 | 45.10618 | 12.23811 | 13893 ft | 354 kts | 316° |
| 2026-04-28 12:01 | 45.12610 | 12.21760 | 13366 ft | 355 kts | 325° |
| 2026-04-28 12:01 | 45.14670 | 12.19820 | 12862 ft | 355 kts | 324° |
| 2026-04-28 12:01 | 45.16693 | 12.17823 | 12344 ft | 355 kts | 323° |
| 2026-04-28 12:02 | 45.18678 | 12.15787 | 11823 ft | 348 kts | 322° |
| 2026-04-28 12:02 | 45.19960 | 12.14452 | 11488 ft | 343 kts | 322° |
| 2026-04-28 12:02 | 45.21860 | 12.12449 | 11033 ft | 336 kts | 322° |
| 2026-04-28 12:02 | 45.23699 | 12.10508 | 10780 ft | 323 kts | 322° |
| 2026-04-28 12:03 | 45.25454 | 12.08643 | 10583 ft | 308 kts | 321° |
| 2026-04-28 12:03 | 45.27132 | 12.06856 | 10413 ft | 294 kts | 321° |
| 2026-04-28 12:03 | 45.28752 | 12.05144 | 10058 ft | 289 kts | 322° |
| 2026-04-28 12:03 | 45.30363 | 12.03439 | 9569 ft | 288 kts | 321° |
| 2026-04-28 12:04 | 45.31966 | 12.01742 | 9102 ft | 286 kts | 321° |
| 2026-04-28 12:04 | 45.33550 | 12.00049 | 8681 ft | 283 kts | 321° |
| 2026-04-28 12:04 | 45.35116 | 11.98377 | 8278 ft | 279 kts | 321° |
| 2026-04-28 12:04 | 45.36663 | 11.96741 | 7909 ft | 277 kts | 321° |
| 2026-04-28 12:05 | 45.38207 | 11.95107 | 7555 ft | 276 kts | 322° |
| 2026-04-28 12:05 | 45.39737 | 11.93474 | 7167 ft | 276 kts | 322° |
| 2026-04-28 12:05 | 45.41276 | 11.91825 | 6792 ft | 276 kts | 321° |
| 2026-04-28 12:05 | 45.42798 | 11.90188 | 6414 ft | 273 kts | 322° |
| 2026-04-28 12:06 | 45.44306 | 11.88565 | 6012 ft | 271 kts | 322° |
| 2026-04-28 12:06 | 45.45788 | 11.86969 | 5701 ft | 267 kts | 322° |
| 2026-04-28 12:06 | 45.47248 | 11.85400 | 5493 ft | 256 kts | 322° |
| 2026-04-28 12:06 | 45.48637 | 11.83906 | 5351 ft | 244 kts | 322° |
| 2026-04-28 12:07 | 45.49963 | 11.82480 | 5233 ft | 233 kts | 322° |
| 2026-04-28 12:07 | 45.51234 | 11.81110 | 5030 ft | 227 kts | 322° |
| 2026-04-28 12:07 | 45.52544 | 11.79855 | 4973 ft | 228 kts | 335° |
| 2026-04-28 12:07 | 45.54076 | 11.79417 | 4974 ft | 221 kts | 4° |
| 2026-04-28 12:08 | 45.55433 | 11.80130 | 4816 ft | 208 kts | 41° |
| 2026-04-28 12:08 | 45.56148 | 11.81837 | 4463 ft | 202 kts | 79° |
| 2026-04-28 12:08 | 45.56292 | 11.83831 | 4272 ft | 201 kts | 86° |
| 2026-04-28 12:08 | 45.56417 | 11.85812 | 4128 ft | 200 kts | 82° |
| 2026-04-28 12:09 | 45.56668 | 11.87762 | 3985 ft | 200 kts | 77° |
| 2026-04-28 12:09 | 45.57034 | 11.89669 | 3864 ft | 199 kts | 73° |
| 2026-04-28 12:09 | 45.57465 | 11.91517 | 3746 ft | 189 kts | 71° |
| 2026-04-28 12:09 | 45.57895 | 11.93201 | 3618 ft | 174 kts | 70° |
| 2026-04-28 12:10 | 45.58311 | 11.94778 | 3423 ft | 166 kts | 70° |
| 2026-04-28 12:10 | 45.58717 | 11.96309 | 3204 ft | 163 kts | 70° |
| 2026-04-28 12:10 | 45.59120 | 11.97830 | 2995 ft | 163 kts | 70° |
| 2026-04-28 12:10 | 45.59520 | 11.99336 | 2770 ft | 163 kts | 69° |
| 2026-04-28 12:11 | 45.59922 | 12.00849 | 2556 ft | 163 kts | 69° |
| 2026-04-28 12:11 | 45.60324 | 12.02362 | 2344 ft | 163 kts | 69° |
| 2026-04-28 12:11 | 45.60719 | 12.03850 | 2126 ft | 162 kts | 69° |
| 2026-04-28 12:11 | 45.61116 | 12.05347 | 1913 ft | 161 kts | 70° |
| 2026-04-28 12:12 | 45.61513 | 12.06841 | 1699 ft | 161 kts | 70° |
| 2026-04-28 12:12 | 45.61910 | 12.08338 | 1482 ft | 161 kts | 70° |
| 2026-04-28 12:12 | 45.62304 | 12.09821 | 1268 ft | 155 kts | 69° |
| 2026-04-28 12:12 | 45.62670 | 12.11198 | 1085 ft | 138 kts | 69° |
| 2026-04-28 12:13 | 45.62994 | 12.12419 | 917 ft | 130 kts | 69° |
| 2026-04-28 12:13 | 45.63311 | 12.13622 | 758 ft | 129 kts | 70° |
| 2026-04-28 12:13 | 45.63627 | 12.14819 | 581 ft | 128 kts | 68° |
| 2026-04-28 12:13 | 45.63944 | 12.15996 | 422 ft | 127 kts | 70° |
| 2026-04-28 12:14 | 45.64255 | 12.17172 | 243 ft | 127 kts | 69° |
| 2026-04-28 12:14 | 45.64568 | 12.18345 | 91 ft | 126 kts | 69° |
| 2026-04-28 12:14 | 45.64856 | 12.19433 | 70 ft | 91 kts | 70° |
| 2026-04-28 12:14 | 45.64984 | 12.19910 | 62 ft | 30 kts | 68° |
| 2026-04-28 12:15 | 45.65066 | 12.20154 | 68 ft | 19 kts | 43° |
| 2026-04-28 12:15 | 45.65166 | 12.20243 | 68 ft | 8 kts | 26° |
| 2026-04-28 12:15 | 45.65223 | 12.20282 | 64 ft | 9 kts | 25° |
| 2026-04-28 12:15 | 45.65246 | 12.20298 | 65 ft | 3 kts | 24° |
| 2026-04-28 12:16 | 45.65271 | 12.20318 | 64 ft | 6 kts | 40° |
| 2026-04-28 12:16 | 45.65300 | 12.20373 | 66 ft | 8 kts | 63° |
| 2026-04-28 12:16 | 45.65326 | 12.20463 | 66 ft | 11 kts | 70° |
| 2026-04-28 12:16 | 45.65354 | 12.20573 | 62 ft | 9 kts | 70° |
| 2026-04-28 12:17 | 45.65396 | 12.20609 | 67 ft | 3 kts | 348° |
| 2026-04-28 12:17 | 45.65414 | 12.20600 | 65 ft | 2 kts | 340° |
| 2026-04-28 12:17 | 45.65422 | 12.20596 | 65 ft | 0 kts | 340° |